METAR AND TAF INFORMATION
METAR FOR MDSD
ADDS - METARS form results

(2328 UTC 09 July 2020)
Data provider http://aviationweather.gov/metar/data/
 
METAR text: MDSD 092300Z 15005KT 9999 FEW020 SCT300 29/24 Q1014
Conditions at: MDSD (CAUCEDO/DE LAS , DO) observed 2300 UTC 09 July 2020
Temperature: 29.0°C (84°F)
Dewpoint: 24.0°C (75°F) [RH = 74%]
Pressure (altimeter): 29.94 inches Hg (1014.0 mb)
Winds: from the SSE (150 degrees) at 6 MPH (5 knots; 2.6 m/s)
Visibility: 6 or more miles (10+ km)
Ceiling: at least 12,000 feet AGL
Clouds: few clouds at 2000 feet AGL
scattered clouds at 30000 feet AGL
Weather: no significant weather observed at this time

 AIRPORT MAP

 RUNWAY INFORMATION
Runway 17 Runway length 11000 ft Runway width 200 ft
Runway elevation 39 ft Runway displaced threshold 0 ft Runway heading 161
Runway 35 Runway length 11000 ft Runway width 200 ft
Runway elevation 58 ft Runway displaced threshold 0 ft Runway heading 341

 AIRPORT FREQUENCIES
Type APP Name APP Frequency 119.3 MHZ
Type ATIS Name ATIS Frequency 126.2 MHZ
Type FCC Name SANTO DOMI Frequency 126.9 MHZ
Type FSS Name FSS Frequency 122 MHZ
Type GND Name GND Frequency 121.9 MHZ
Type TWR Name TWR Frequency 118.1 MHZ

 AIRPORT NEAR NAVIGATION AIDS
Type VOR-DME Name Punta Caucedo Frequency 114700 KHZ
Type NDB Name Guerra Frequency 200 KHZ